METAR Data
IDs: Format: Raw Decoded Include TAF

Data at: 0405 UTC 06 Dec 2019

METAR for:KRDK (Red Oak Muni, IA, US)
Text:KRDK 060355Z AUTO 35012KT 10SM FEW190 FEW210 FEW300 04/01 A3007 RMK AO2
Temperature: 4.0°C ( 39°F)
Dewpoint: 1.0°C ( 34°F) [RH = 81%]
Pressure (altimeter):30.07 inches Hg (1018.4 mb)
Winds:from the N (350 degrees) at 14 MPH (12 knots; 6.2 m/s)
Visibility:10 or more sm (16+ km)
Ceiling:at least 12,000 feet AGL
Clouds: few clouds at 19000 feet AGL, few clouds at 21000 feet AGL, few clouds at 30000 feet AGL
QC Flag:automated observation with no human augmentation